sensor_id;sensor_type;location;lat;lon;timestamp;P1;durP1;ratioP1;P2;durP2;ratioP2
65315;SDS011;51920;53.952;10.292;2023-02-15T00:01:38;44.72;;;17.05;;
65315;SDS011;51920;53.952;10.292;2023-02-15T00:04:05;49.47;;;17.75;;
65315;SDS011;51920;53.952;10.292;2023-02-15T00:06:31;40.80;;;15.87;;
65315;SDS011;51920;53.952;10.292;2023-02-15T00:08:57;44.35;;;17.05;;
65315;SDS011;51920;53.952;10.292;2023-02-15T00:11:22;46.37;;;17.20;;
65315;SDS011;51920;53.952;10.292;2023-02-15T00:16:34;43.93;;;16.57;;
65315;SDS011;51920;53.952;10.292;2023-02-15T00:19:00;46.30;;;17.83;;
65315;SDS011;51920;53.952;10.292;2023-02-15T00:21:29;46.70;;;17.20;;
65315;SDS011;51920;53.952;10.292;2023-02-15T00:23:56;45.38;;;17.55;;
65315;SDS011;51920;53.952;10.292;2023-02-15T00:26:23;43.73;;;16.53;;
65315;SDS011;51920;53.952;10.292;2023-02-15T00:28:48;41.15;;;15.70;;
65315;SDS011;51920;53.952;10.292;2023-02-15T00:31:14;41.63;;;16.53;;
65315;SDS011;51920;53.952;10.292;2023-02-15T00:33:39;46.30;;;17.53;;
65315;SDS011;51920;53.952;10.292;2023-02-15T00:36:06;50.42;;;17.33;;
65315;SDS011;51920;53.952;10.292;2023-02-15T00:38:33;39.90;;;16.48;;
65315;SDS011;51920;53.952;10.292;2023-02-15T00:40:59;41.42;;;16.52;;
65315;SDS011;51920;53.952;10.292;2023-02-15T00:43:27;43.03;;;15.70;;
65315;SDS011;51920;53.952;10.292;2023-02-15T00:45:53;43.53;;;16.17;;
65315;SDS011;51920;53.952;10.292;2023-02-15T00:48:19;46.47;;;16.30;;
65315;SDS011;51920;53.952;10.292;2023-02-15T00:50:46;47.00;;;16.47;;
65315;SDS011;51920;53.952;10.292;2023-02-15T00:53:14;42.92;;;15.95;;
65315;SDS011;51920;53.952;10.292;2023-02-15T00:55:39;40.43;;;15.67;;
65315;SDS011;51920;53.952;10.292;2023-02-15T00:58:05;47.20;;;15.98;;
65315;SDS011;51920;53.952;10.292;2023-02-15T01:00:32;41.63;;;15.63;;
65315;SDS011;51920;53.952;10.292;2023-02-15T01:02:57;43.33;;;16.83;;
65315;SDS011;51920;53.952;10.292;2023-02-15T01:05:23;45.00;;;17.03;;
65315;SDS011;51920;53.952;10.292;2023-02-15T01:07:48;43.15;;;16.58;;
65315;SDS011;51920;53.952;10.292;2023-02-15T01:10:14;45.03;;;16.10;;
65315;SDS011;51920;53.952;10.292;2023-02-15T01:12:40;48.40;;;16.75;;
65315;SDS011;51920;53.952;10.292;2023-02-15T01:15:06;42.27;;;16.67;;
65315;SDS011;51920;53.952;10.292;2023-02-15T01:17:31;50.50;;;16.88;;
65315;SDS011;51920;53.952;10.292;2023-02-15T01:19:57;49.30;;;17.17;;
65315;SDS011;51920;53.952;10.292;2023-02-15T01:22:22;47.47;;;16.70;;
65315;SDS011;51920;53.952;10.292;2023-02-15T01:24:51;51.17;;;17.55;;
65315;SDS011;51920;53.952;10.292;2023-02-15T01:27:16;53.00;;;17.23;;
65315;SDS011;51920;53.952;10.292;2023-02-15T01:29:42;54.42;;;17.08;;
65315;SDS011;51920;53.952;10.292;2023-02-15T01:32:08;51.93;;;16.80;;
65315;SDS011;51920;53.952;10.292;2023-02-15T01:34:33;55.22;;;17.73;;
65315;SDS011;51920;53.952;10.292;2023-02-15T01:36:59;78.03;;;18.80;;
65315;SDS011;51920;53.952;10.292;2023-02-15T01:39:24;68.27;;;18.57;;
65315;SDS011;51920;53.952;10.292;2023-02-15T01:41:50;52.70;;;17.08;;
65315;SDS011;51920;53.952;10.292;2023-02-15T01:47:29;53.17;;;16.95;;
65315;SDS011;51920;53.952;10.292;2023-02-15T01:50:08;54.73;;;16.57;;
65315;SDS011;51920;53.952;10.292;2023-02-15T01:52:38;48.38;;;16.77;;
65315;SDS011;51920;53.952;10.292;2023-02-15T01:55:06;55.50;;;17.75;;
65315;SDS011;51920;53.952;10.292;2023-02-15T01:57:33;64.97;;;17.95;;
65315;SDS011;51920;53.952;10.292;2023-02-15T02:00:04;47.92;;;16.65;;
65315;SDS011;51920;53.952;10.292;2023-02-15T02:02:37;56.13;;;17.03;;
65315;SDS011;51920;53.952;10.292;2023-02-15T02:05:04;59.28;;;17.83;;
65315;SDS011;51920;53.952;10.292;2023-02-15T02:07:36;52.28;;;17.20;;
65315;SDS011;51920;53.952;10.292;2023-02-15T02:10:05;66.13;;;17.48;;
65315;SDS011;51920;53.952;10.292;2023-02-15T02:12:33;63.15;;;17.83;;
65315;SDS011;51920;53.952;10.292;2023-02-15T02:15:00;53.30;;;16.53;;
65315;SDS011;51920;53.952;10.292;2023-02-15T02:20:17;50.65;;;17.15;;
65315;SDS011;51920;53.952;10.292;2023-02-15T02:39:39;55.35;;;17.23;;
65315;SDS011;51920;53.952;10.292;2023-02-15T02:44:54;53.20;;;15.65;;
65315;SDS011;51920;53.952;10.292;2023-02-15T02:47:29;53.83;;;17.00;;
65315;SDS011;51920;53.952;10.292;2023-02-15T02:50:00;50.22;;;16.10;;
65315;SDS011;51920;53.952;10.292;2023-02-15T02:52:34;49.15;;;16.10;;
65315;SDS011;51920;53.952;10.292;2023-02-15T02:57:45;54.65;;;16.15;;
65315;SDS011;51920;53.952;10.292;2023-02-15T03:00:18;49.35;;;16.77;;
65315;SDS011;51920;53.952;10.292;2023-02-15T03:02:46;55.40;;;17.08;;
65315;SDS011;51920;53.952;10.292;2023-02-15T03:05:16;59.95;;;17.42;;
65315;SDS011;51920;53.952;10.292;2023-02-15T03:07:46;73.87;;;17.30;;
65315;SDS011;51920;53.952;10.292;2023-02-15T03:10:16;51.53;;;15.93;;
65315;SDS011;51920;53.952;10.292;2023-02-15T03:12:45;49.92;;;16.90;;
65315;SDS011;51920;53.952;10.292;2023-02-15T03:15:16;59.20;;;16.75;;
65315;SDS011;51920;53.952;10.292;2023-02-15T03:17:46;59.83;;;17.45;;
65315;SDS011;51920;53.952;10.292;2023-02-15T03:20:21;53.43;;;16.53;;
65315;SDS011;51920;53.952;10.292;2023-02-15T03:22:53;48.47;;;16.25;;
65315;SDS011;51920;53.952;10.292;2023-02-15T03:25:26;71.15;;;17.17;;
65315;SDS011;51920;53.952;10.292;2023-02-15T03:27:59;70.53;;;17.48;;
65315;SDS011;51920;53.952;10.292;2023-02-15T03:30:28;71.43;;;17.00;;
65315;SDS011;51920;53.952;10.292;2023-02-15T03:32:56;63.57;;;16.80;;
65315;SDS011;51920;53.952;10.292;2023-02-15T03:35:25;51.08;;;16.23;;
65315;SDS011;51920;53.952;10.292;2023-02-15T03:37:59;50.80;;;16.77;;
65315;SDS011;51920;53.952;10.292;2023-02-15T03:40:30;49.03;;;16.45;;
65315;SDS011;51920;53.952;10.292;2023-02-15T03:45:55;55.23;;;15.37;;
65315;SDS011;51920;53.952;10.292;2023-02-15T03:49:00;56.08;;;15.40;;
65315;SDS011;51920;53.952;10.292;2023-02-15T03:51:22;50.15;;;15.88;;
65315;SDS011;51920;53.952;10.292;2023-02-15T03:53:59;70.50;;;16.42;;
65315;SDS011;51920;53.952;10.292;2023-02-15T03:56:27;46.42;;;15.40;;
65315;SDS011;51920;53.952;10.292;2023-02-15T03:58:53;56.43;;;15.93;;
65315;SDS011;51920;53.952;10.292;2023-02-15T04:01:38;75.38;;;16.88;;
65315;SDS011;51920;53.952;10.292;2023-02-15T04:04:26;49.33;;;15.50;;
65315;SDS011;51920;53.952;10.292;2023-02-15T04:06:56;62.70;;;15.82;;
65315;SDS011;51920;53.952;10.292;2023-02-15T04:09:22;59.40;;;16.05;;
65315;SDS011;51920;53.952;10.292;2023-02-15T04:12:06;74.43;;;16.55;;
65315;SDS011;51920;53.952;10.292;2023-02-15T04:14:31;71.27;;;16.47;;
65315;SDS011;51920;53.952;10.292;2023-02-15T04:17:15;43.20;;;14.95;;
65315;SDS011;51920;53.952;10.292;2023-02-15T04:19:41;64.63;;;16.63;;
65315;SDS011;51920;53.952;10.292;2023-02-15T04:22:25;51.03;;;15.43;;
65315;SDS011;51920;53.952;10.292;2023-02-15T04:25:09;42.47;;;14.77;;
65315;SDS011;51920;53.952;10.292;2023-02-15T04:27:35;81.30;;;15.82;;
65315;SDS011;51920;53.952;10.292;2023-02-15T04:30:01;56.05;;;15.27;;
65315;SDS011;51920;53.952;10.292;2023-02-15T04:32:27;63.95;;;14.98;;
65315;SDS011;51920;53.952;10.292;2023-02-15T04:34:53;55.13;;;15.20;;
65315;SDS011;51920;53.952;10.292;2023-02-15T04:37:18;85.53;;;16.20;;
65315;SDS011;51920;53.952;10.292;2023-02-15T04:39:44;59.35;;;15.27;;
65315;SDS011;51920;53.952;10.292;2023-02-15T04:42:09;46.33;;;14.67;;
65315;SDS011;51920;53.952;10.292;2023-02-15T04:44:34;85.47;;;16.27;;
65315;SDS011;51920;53.952;10.292;2023-02-15T04:47:00;52.23;;;14.67;;
65315;SDS011;51920;53.952;10.292;2023-02-15T04:49:25;78.28;;;16.60;;
65315;SDS011;51920;53.952;10.292;2023-02-15T04:51:51;44.67;;;15.27;;
65315;SDS011;51920;53.952;10.292;2023-02-15T04:54:16;36.07;;;13.27;;
65315;SDS011;51920;53.952;10.292;2023-02-15T04:56:42;53.13;;;15.37;;
65315;SDS011;51920;53.952;10.292;2023-02-15T04:59:11;40.15;;;14.45;;
65315;SDS011;51920;53.952;10.292;2023-02-15T05:01:37;41.35;;;14.98;;
65315;SDS011;51920;53.952;10.292;2023-02-15T05:04:02;45.30;;;14.60;;
65315;SDS011;51920;53.952;10.292;2023-02-15T05:06:28;63.87;;;14.47;;
65315;SDS011;51920;53.952;10.292;2023-02-15T05:08:53;74.77;;;15.53;;
65315;SDS011;51920;53.952;10.292;2023-02-15T05:11:19;52.80;;;14.87;;
65315;SDS011;51920;53.952;10.292;2023-02-15T05:13:44;70.27;;;14.77;;
65315;SDS011;51920;53.952;10.292;2023-02-15T05:16:10;41.42;;;14.98;;
65315;SDS011;51920;53.952;10.292;2023-02-15T05:18:35;40.10;;;14.80;;
65315;SDS011;51920;53.952;10.292;2023-02-15T05:21:00;76.30;;;16.00;;
65315;SDS011;51920;53.952;10.292;2023-02-15T05:23:26;45.53;;;13.77;;
65315;SDS011;51920;53.952;10.292;2023-02-15T05:25:51;51.17;;;14.67;;
65315;SDS011;51920;53.952;10.292;2023-02-15T05:28:36;78.30;;;14.70;;
65315;SDS011;51920;53.952;10.292;2023-02-15T05:31:24;59.60;;;13.88;;
65315;SDS011;51920;53.952;10.292;2023-02-15T05:33:48;99.95;;;15.93;;
65315;SDS011;51920;53.952;10.292;2023-02-15T05:36:14;46.03;;;14.43;;
65315;SDS011;51920;53.952;10.292;2023-02-15T05:38:39;38.17;;;13.73;;
65315;SDS011;51920;53.952;10.292;2023-02-15T05:41:05;54.20;;;13.77;;
65315;SDS011;51920;53.952;10.292;2023-02-15T05:43:31;47.00;;;13.52;;
65315;SDS011;51920;53.952;10.292;2023-02-15T05:45:57;45.22;;;13.93;;
65315;SDS011;51920;53.952;10.292;2023-02-15T05:48:23;78.47;;;15.30;;
65315;SDS011;51920;53.952;10.292;2023-02-15T05:53:45;60.15;;;14.98;;
65315;SDS011;51920;53.952;10.292;2023-02-15T05:56:10;45.77;;;14.70;;
65315;SDS011;51920;53.952;10.292;2023-02-15T05:58:40;85.72;;;15.32;;
65315;SDS011;51920;53.952;10.292;2023-02-15T06:01:13;73.28;;;14.40;;
65315;SDS011;51920;53.952;10.292;2023-02-15T06:03:40;36.73;;;13.43;;
65315;SDS011;51920;53.952;10.292;2023-02-15T06:06:07;45.33;;;14.68;;
65315;SDS011;51920;53.952;10.292;2023-02-15T06:08:33;42.80;;;14.75;;
65315;SDS011;51920;53.952;10.292;2023-02-15T06:11:01;47.85;;;13.60;;
65315;SDS011;51920;53.952;10.292;2023-02-15T06:13:26;48.23;;;14.53;;
65315;SDS011;51920;53.952;10.292;2023-02-15T06:15:52;48.92;;;14.20;;
65315;SDS011;51920;53.952;10.292;2023-02-15T06:18:17;48.77;;;14.40;;
65315;SDS011;51920;53.952;10.292;2023-02-15T06:20:45;62.20;;;14.90;;
65315;SDS011;51920;53.952;10.292;2023-02-15T06:23:11;51.63;;;14.75;;
65315;SDS011;51920;53.952;10.292;2023-02-15T06:25:36;49.80;;;13.77;;
65315;SDS011;51920;53.952;10.292;2023-02-15T06:28:02;41.57;;;14.63;;
65315;SDS011;51920;53.952;10.292;2023-02-15T06:30:27;45.33;;;13.85;;
65315;SDS011;51920;53.952;10.292;2023-02-15T06:32:52;44.97;;;13.53;;
65315;SDS011;51920;53.952;10.292;2023-02-15T06:35:18;48.47;;;13.33;;
65315;SDS011;51920;53.952;10.292;2023-02-15T06:37:45;37.20;;;13.23;;
65315;SDS011;51920;53.952;10.292;2023-02-15T06:40:11;35.80;;;13.45;;
65315;SDS011;51920;53.952;10.292;2023-02-15T06:42:37;61.83;;;14.53;;
65315;SDS011;51920;53.952;10.292;2023-02-15T06:45:02;46.92;;;14.35;;
65315;SDS011;51920;53.952;10.292;2023-02-15T06:47:28;67.80;;;15.00;;
65315;SDS011;51920;53.952;10.292;2023-02-15T06:49:54;48.85;;;13.80;;
65315;SDS011;51920;53.952;10.292;2023-02-15T06:52:19;43.60;;;14.07;;
65315;SDS011;51920;53.952;10.292;2023-02-15T06:54:44;45.43;;;14.63;;
65315;SDS011;51920;53.952;10.292;2023-02-15T06:57:10;36.73;;;13.93;;
65315;SDS011;51920;53.952;10.292;2023-02-15T06:59:35;60.03;;;15.67;;
65315;SDS011;51920;53.952;10.292;2023-02-15T07:02:01;45.22;;;13.60;;
65315;SDS011;51920;53.952;10.292;2023-02-15T07:04:26;41.90;;;14.27;;
65315;SDS011;51920;53.952;10.292;2023-02-15T07:06:53;53.25;;;13.98;;
65315;SDS011;51920;53.952;10.292;2023-02-15T07:09:19;58.60;;;15.10;;
65315;SDS011;51920;53.952;10.292;2023-02-15T07:11:44;45.90;;;15.23;;
65315;SDS011;51920;53.952;10.292;2023-02-15T07:14:28;67.93;;;15.07;;
65315;SDS011;51920;53.952;10.292;2023-02-15T07:16:53;65.97;;;15.57;;
65315;SDS011;51920;53.952;10.292;2023-02-15T07:19:19;64.95;;;15.50;;
65315;SDS011;51920;53.952;10.292;2023-02-15T07:21:45;45.53;;;14.77;;
65315;SDS011;51920;53.952;10.292;2023-02-15T07:24:10;44.23;;;14.50;;
65315;SDS011;51920;53.952;10.292;2023-02-15T07:26:36;39.23;;;13.77;;
65315;SDS011;51920;53.952;10.292;2023-02-15T07:29:01;50.67;;;14.10;;
65315;SDS011;51920;53.952;10.292;2023-02-15T07:31:27;54.33;;;14.40;;
65315;SDS011;51920;53.952;10.292;2023-02-15T07:33:52;50.13;;;14.20;;
65315;SDS011;51920;53.952;10.292;2023-02-15T07:36:17;58.67;;;14.30;;
65315;SDS011;51920;53.952;10.292;2023-02-15T07:38:43;58.90;;;14.43;;
65315;SDS011;51920;53.952;10.292;2023-02-15T07:41:10;50.05;;;15.23;;
65315;SDS011;51920;53.952;10.292;2023-02-15T07:43:38;60.60;;;14.90;;
65315;SDS011;51920;53.952;10.292;2023-02-15T07:46:07;56.95;;;14.60;;
65315;SDS011;51920;53.952;10.292;2023-02-15T07:48:36;78.10;;;15.43;;
65315;SDS011;51920;53.952;10.292;2023-02-15T07:51:03;62.60;;;15.40;;
65315;SDS011;51920;53.952;10.292;2023-02-15T07:53:30;53.10;;;14.55;;
65315;SDS011;51920;53.952;10.292;2023-02-15T07:55:59;97.57;;;15.23;;
65315;SDS011;51920;53.952;10.292;2023-02-15T07:58:26;45.78;;;14.77;;
65315;SDS011;51920;53.952;10.292;2023-02-15T08:01:11;62.08;;;14.65;;
65315;SDS011;51920;53.952;10.292;2023-02-15T08:03:37;42.78;;;14.23;;
65315;SDS011;51920;53.952;10.292;2023-02-15T08:06:03;52.13;;;14.87;;
65315;SDS011;51920;53.952;10.292;2023-02-15T08:08:29;68.13;;;14.70;;
65315;SDS011;51920;53.952;10.292;2023-02-15T08:11:05;46.63;;;14.43;;
65315;SDS011;51920;53.952;10.292;2023-02-15T08:14:23;44.92;;;14.68;;
65315;SDS011;51920;53.952;10.292;2023-02-15T08:19:13;83.13;;;14.93;;
65315;SDS011;51920;53.952;10.292;2023-02-15T08:21:45;61.72;;;15.82;;
65315;SDS011;51920;53.952;10.292;2023-02-15T08:24:13;44.08;;;14.20;;
65315;SDS011;51920;53.952;10.292;2023-02-15T08:26:40;58.33;;;15.07;;
65315;SDS011;51920;53.952;10.292;2023-02-15T08:29:07;68.73;;;15.03;;
65315;SDS011;51920;53.952;10.292;2023-02-15T08:31:33;43.53;;;13.40;;
65315;SDS011;51920;53.952;10.292;2023-02-15T08:33:59;56.65;;;14.88;;
65315;SDS011;51920;53.952;10.292;2023-02-15T08:36:25;50.87;;;13.60;;
65315;SDS011;51920;53.952;10.292;2023-02-15T08:38:53;40.30;;;13.18;;
65315;SDS011;51920;53.952;10.292;2023-02-15T08:41:20;56.10;;;14.10;;
65315;SDS011;51920;53.952;10.292;2023-02-15T08:43:48;50.63;;;13.73;;
65315;SDS011;51920;53.952;10.292;2023-02-15T08:46:16;51.17;;;14.93;;
65315;SDS011;51920;53.952;10.292;2023-02-15T08:48:42;49.00;;;14.27;;
65315;SDS011;51920;53.952;10.292;2023-02-15T08:51:12;54.38;;;14.18;;
65315;SDS011;51920;53.952;10.292;2023-02-15T08:53:41;55.20;;;13.47;;
65315;SDS011;51920;53.952;10.292;2023-02-15T08:56:08;61.83;;;13.38;;
65315;SDS011;51920;53.952;10.292;2023-02-15T08:58:34;47.22;;;13.68;;
65315;SDS011;51920;53.952;10.292;2023-02-15T09:01:00;36.38;;;12.55;;
65315;SDS011;51920;53.952;10.292;2023-02-15T09:03:29;43.42;;;13.18;;
65315;SDS011;51920;53.952;10.292;2023-02-15T09:05:58;57.37;;;14.60;;
65315;SDS011;51920;53.952;10.292;2023-02-15T09:08:25;60.53;;;14.68;;
65315;SDS011;51920;53.952;10.292;2023-02-15T09:10:51;55.20;;;13.67;;
65315;SDS011;51920;53.952;10.292;2023-02-15T09:13:17;57.15;;;13.77;;
65315;SDS011;51920;53.952;10.292;2023-02-15T09:15:42;38.77;;;12.13;;
65315;SDS011;51920;53.952;10.292;2023-02-15T09:18:07;36.63;;;13.97;;
65315;SDS011;51920;53.952;10.292;2023-02-15T09:20:36;61.13;;;14.23;;
65315;SDS011;51920;53.952;10.292;2023-02-15T09:23:01;41.75;;;14.05;;
65315;SDS011;51920;53.952;10.292;2023-02-15T09:25:27;51.90;;;13.65;;
65315;SDS011;51920;53.952;10.292;2023-02-15T09:27:53;45.77;;;14.83;;
65315;SDS011;51920;53.952;10.292;2023-02-15T09:30:18;42.47;;;14.23;;
65315;SDS011;51920;53.952;10.292;2023-02-15T09:32:43;49.30;;;14.50;;
65315;SDS011;51920;53.952;10.292;2023-02-15T09:35:11;39.75;;;14.02;;
65315;SDS011;51920;53.952;10.292;2023-02-15T09:37:37;36.67;;;13.25;;
65315;SDS011;51920;53.952;10.292;2023-02-15T09:40:02;40.27;;;14.57;;
65315;SDS011;51920;53.952;10.292;2023-02-15T09:46:04;39.40;;;13.10;;
65315;SDS011;51920;53.952;10.292;2023-02-15T09:48:39;48.45;;;13.45;;
65315;SDS011;51920;53.952;10.292;2023-02-15T09:57:05;37.13;;;14.27;;
65315;SDS011;51920;53.952;10.292;2023-02-15T09:59:55;50.00;;;14.38;;
65315;SDS011;51920;53.952;10.292;2023-02-15T10:11:03;48.25;;;14.68;;
65315;SDS011;51920;53.952;10.292;2023-02-15T10:14:15;42.58;;;14.02;;
65315;SDS011;51920;53.952;10.292;2023-02-15T10:25:22;35.88;;;13.45;;
65315;SDS011;51920;53.952;10.292;2023-02-15T10:28:05;53.72;;;15.00;;
65315;SDS011;51920;53.952;10.292;2023-02-15T10:30:57;41.47;;;14.82;;
65315;SDS011;51920;53.952;10.292;2023-02-15T10:33:30;44.70;;;14.47;;
65315;SDS011;51920;53.952;10.292;2023-02-15T10:36:23;54.63;;;14.65;;
65315;SDS011;51920;53.952;10.292;2023-02-15T10:41:46;50.22;;;15.50;;
65315;SDS011;51920;53.952;10.292;2023-02-15T10:56:12;43.72;;;14.80;;
65315;SDS011;51920;53.952;10.292;2023-02-15T11:07:12;39.92;;;14.20;;
65315;SDS011;51920;53.952;10.292;2023-02-15T11:09:46;43.00;;;14.48;;
65315;SDS011;51920;53.952;10.292;2023-02-15T11:12:16;38.80;;;14.18;;
65315;SDS011;51920;53.952;10.292;2023-02-15T11:17:19;47.28;;;15.68;;
65315;SDS011;51920;53.952;10.292;2023-02-15T11:22:47;43.53;;;14.65;;
65315;SDS011;51920;53.952;10.292;2023-02-15T11:25:18;45.25;;;15.10;;
65315;SDS011;51920;53.952;10.292;2023-02-15T11:27:47;45.97;;;14.43;;
65315;SDS011;51920;53.952;10.292;2023-02-15T11:30:17;44.85;;;14.60;;
65315;SDS011;51920;53.952;10.292;2023-02-15T11:32:46;43.67;;;15.25;;
65315;SDS011;51920;53.952;10.292;2023-02-15T11:35:24;44.47;;;14.23;;
65315;SDS011;51920;53.952;10.292;2023-02-15T11:37:57;42.13;;;14.38;;
65315;SDS011;51920;53.952;10.292;2023-02-15T11:42:56;41.55;;;15.70;;
65315;SDS011;51920;53.952;10.292;2023-02-15T11:45:29;43.08;;;15.30;;
65315;SDS011;51920;53.952;10.292;2023-02-15T11:47:56;41.80;;;15.38;;
65315;SDS011;51920;53.952;10.292;2023-02-15T11:50:24;43.75;;;14.60;;
65315;SDS011;51920;53.952;10.292;2023-02-15T11:52:52;41.67;;;15.07;;
65315;SDS011;51920;53.952;10.292;2023-02-15T11:55:23;41.70;;;14.55;;
65315;SDS011;51920;53.952;10.292;2023-02-15T12:00:50;50.35;;;14.80;;
65315;SDS011;51920;53.952;10.292;2023-02-15T12:03:21;38.25;;;14.10;;
65315;SDS011;51920;53.952;10.292;2023-02-15T12:05:54;43.60;;;15.67;;
65315;SDS011;51920;53.952;10.292;2023-02-15T12:08:25;44.92;;;14.73;;
65315;SDS011;51920;53.952;10.292;2023-02-15T12:11:11;40.72;;;14.93;;
65315;SDS011;51920;53.952;10.292;2023-02-15T12:13:55;39.13;;;15.57;;
65315;SDS011;51920;53.952;10.292;2023-02-15T12:16:22;39.70;;;14.77;;
65315;SDS011;51920;53.952;10.292;2023-02-15T12:18:49;42.37;;;14.53;;
65315;SDS011;51920;53.952;10.292;2023-02-15T12:21:24;48.58;;;16.08;;
65315;SDS011;51920;53.952;10.292;2023-02-15T12:23:54;40.50;;;14.90;;
65315;SDS011;51920;53.952;10.292;2023-02-15T12:26:23;41.03;;;15.80;;
65315;SDS011;51920;53.952;10.292;2023-02-15T12:28:50;46.75;;;15.55;;
65315;SDS011;51920;53.952;10.292;2023-02-15T12:31:21;44.27;;;15.50;;
65315;SDS011;51920;53.952;10.292;2023-02-15T12:33:50;51.63;;;16.10;;
65315;SDS011;51920;53.952;10.292;2023-02-15T12:36:19;53.28;;;16.08;;
65315;SDS011;51920;53.952;10.292;2023-02-15T12:41:37;56.58;;;15.93;;
65315;SDS011;51920;53.952;10.292;2023-02-15T12:46:57;44.70;;;14.98;;
65315;SDS011;51920;53.952;10.292;2023-02-15T12:49:25;51.40;;;17.27;;
65315;SDS011;51920;53.952;10.292;2023-02-15T12:51:52;45.03;;;16.48;;
65315;SDS011;51920;53.952;10.292;2023-02-15T12:56:56;49.17;;;16.57;;
65315;SDS011;51920;53.952;10.292;2023-02-15T12:59:26;47.72;;;17.33;;
65315;SDS011;51920;53.952;10.292;2023-02-15T13:01:51;50.65;;;17.73;;
65315;SDS011;51920;53.952;10.292;2023-02-15T13:06:51;55.20;;;18.80;;
65315;SDS011;51920;53.952;10.292;2023-02-15T13:09:52;53.85;;;18.40;;
65315;SDS011;51920;53.952;10.292;2023-02-15T13:12:14;51.13;;;16.85;;
65315;SDS011;51920;53.952;10.292;2023-02-15T13:14:43;53.40;;;18.10;;
65315;SDS011;51920;53.952;10.292;2023-02-15T13:17:11;54.53;;;18.40;;
65315;SDS011;51920;53.952;10.292;2023-02-15T13:19:47;52.25;;;18.65;;
65315;SDS011;51920;53.952;10.292;2023-02-15T13:22:20;54.78;;;18.45;;
65315;SDS011;51920;53.952;10.292;2023-02-15T13:24:59;59.08;;;18.60;;
65315;SDS011;51920;53.952;10.292;2023-02-15T13:27:34;60.80;;;20.20;;
65315;SDS011;51920;53.952;10.292;2023-02-15T13:30:10;53.87;;;19.00;;
65315;SDS011;51920;53.952;10.292;2023-02-15T13:32:43;57.55;;;18.02;;
65315;SDS011;51920;53.952;10.292;2023-02-15T13:35:14;57.30;;;19.27;;
65315;SDS011;51920;53.952;10.292;2023-02-15T13:40:52;57.53;;;19.15;;
65315;SDS011;51920;53.952;10.292;2023-02-15T13:49:00;54.45;;;19.63;;
65315;SDS011;51920;53.952;10.292;2023-02-15T13:51:32;64.18;;;20.25;;
65315;SDS011;51920;53.952;10.292;2023-02-15T14:00:17;62.78;;;20.63;;
65315;SDS011;51920;53.952;10.292;2023-02-15T14:11:04;58.90;;;20.30;;
65315;SDS011;51920;53.952;10.292;2023-02-15T14:13:51;61.45;;;19.90;;
65315;SDS011;51920;53.952;10.292;2023-02-15T14:16:41;68.88;;;21.52;;
65315;SDS011;51920;53.952;10.292;2023-02-15T14:19:19;66.97;;;20.70;;
65315;SDS011;51920;53.952;10.292;2023-02-15T14:22:01;64.68;;;21.25;;
65315;SDS011;51920;53.952;10.292;2023-02-15T14:24:37;59.87;;;20.27;;
65315;SDS011;51920;53.952;10.292;2023-02-15T14:30:13;69.35;;;22.42;;
65315;SDS011;51920;53.952;10.292;2023-02-15T14:32:45;73.13;;;22.10;;
65315;SDS011;51920;53.952;10.292;2023-02-15T14:35:20;72.93;;;23.67;;
65315;SDS011;51920;53.952;10.292;2023-02-15T14:48:48;87.35;;;24.08;;
65315;SDS011;51920;53.952;10.292;2023-02-15T14:54:11;83.25;;;24.80;;
65315;SDS011;51920;53.952;10.292;2023-02-15T15:02:27;90.15;;;25.98;;
65315;SDS011;51920;53.952;10.292;2023-02-15T15:05:09;92.33;;;26.93;;
65315;SDS011;51920;53.952;10.292;2023-02-15T15:07:56;105.82;;;27.38;;
65315;SDS011;51920;53.952;10.292;2023-02-15T15:13:00;97.88;;;26.70;;
65315;SDS011;51920;53.952;10.292;2023-02-15T15:16:23;106.43;;;26.63;;
65315;SDS011;51920;53.952;10.292;2023-02-15T15:18:55;102.40;;;27.70;;
65315;SDS011;51920;53.952;10.292;2023-02-15T15:32:38;103.17;;;30.73;;
65315;SDS011;51920;53.952;10.292;2023-02-15T15:35:46;103.38;;;30.08;;
65315;SDS011;51920;53.952;10.292;2023-02-15T15:38:35;107.20;;;31.45;;
65315;SDS011;51920;53.952;10.292;2023-02-15T15:41:25;110.32;;;31.25;;
65315;SDS011;51920;53.952;10.292;2023-02-15T15:44:08;109.50;;;31.02;;
65315;SDS011;51920;53.952;10.292;2023-02-15T15:49:58;121.07;;;31.38;;
65315;SDS011;51920;53.952;10.292;2023-02-15T15:52:24;111.70;;;31.70;;
65315;SDS011;51920;53.952;10.292;2023-02-15T15:54:55;111.28;;;32.13;;
65315;SDS011;51920;53.952;10.292;2023-02-15T15:57:26;114.43;;;32.00;;
65315;SDS011;51920;53.952;10.292;2023-02-15T15:59:55;117.97;;;33.07;;
65315;SDS011;51920;53.952;10.292;2023-02-15T16:02:23;112.57;;;32.88;;
65315;SDS011;51920;53.952;10.292;2023-02-15T16:04:49;114.00;;;33.03;;
65315;SDS011;51920;53.952;10.292;2023-02-15T16:12:20;125.68;;;33.83;;
65315;SDS011;51920;53.952;10.292;2023-02-15T16:14:46;124.15;;;33.53;;
65315;SDS011;51920;53.952;10.292;2023-02-15T16:17:23;118.35;;;32.40;;
65315;SDS011;51920;53.952;10.292;2023-02-15T16:19:50;124.73;;;31.67;;
65315;SDS011;51920;53.952;10.292;2023-02-15T16:22:23;118.30;;;31.80;;
65315;SDS011;51920;53.952;10.292;2023-02-15T16:27:45;111.78;;;31.63;;
65315;SDS011;51920;53.952;10.292;2023-02-15T16:30:25;117.05;;;32.50;;
65315;SDS011;51920;53.952;10.292;2023-02-15T16:33:10;108.80;;;31.97;;
65315;SDS011;51920;53.952;10.292;2023-02-15T16:35:55;115.10;;;32.30;;
65315;SDS011;51920;53.952;10.292;2023-02-15T16:38:30;112.45;;;33.55;;
65315;SDS011;51920;53.952;10.292;2023-02-15T16:41:24;115.03;;;33.25;;
65315;SDS011;51920;53.952;10.292;2023-02-15T16:43:52;108.22;;;31.75;;
65315;SDS011;51920;53.952;10.292;2023-02-15T16:46:41;127.50;;;30.70;;
65315;SDS011;51920;53.952;10.292;2023-02-15T16:49:14;119.40;;;29.95;;
65315;SDS011;51920;53.952;10.292;2023-02-15T16:51:45;100.55;;;28.27;;
65315;SDS011;51920;53.952;10.292;2023-02-15T16:54:21;104.70;;;30.33;;
65315;SDS011;51920;53.952;10.292;2023-02-15T16:56:48;121.72;;;30.00;;
65315;SDS011;51920;53.952;10.292;2023-02-15T16:59:47;113.93;;;30.93;;
65315;SDS011;51920;53.952;10.292;2023-02-15T17:02:14;125.88;;;32.65;;
65315;SDS011;51920;53.952;10.292;2023-02-15T17:04:44;130.10;;;29.73;;
65315;SDS011;51920;53.952;10.292;2023-02-15T17:07:19;104.63;;;27.87;;
65315;SDS011;51920;53.952;10.292;2023-02-15T17:09:49;106.85;;;29.83;;
65315;SDS011;51920;53.952;10.292;2023-02-15T17:17:58;112.95;;;30.42;;
65315;SDS011;51920;53.952;10.292;2023-02-15T17:20:48;120.50;;;30.38;;
65315;SDS011;51920;53.952;10.292;2023-02-15T17:25:53;126.73;;;32.57;;
65315;SDS011;51920;53.952;10.292;2023-02-15T17:28:20;106.05;;;31.48;;
65315;SDS011;51920;53.952;10.292;2023-02-15T17:30:48;122.75;;;33.47;;
65315;SDS011;51920;53.952;10.292;2023-02-15T17:33:23;153.23;;;34.97;;
65315;SDS011;51920;53.952;10.292;2023-02-15T17:36:03;117.22;;;31.02;;